Yuho Maru No.3 — JD2491 — position and weather

sailwx.info

Track history (hours):
 
Tides and Currents Weather Stations Pressure Air Temp Water Temp Dewpoint Dewpoint Depression Visibility Wind Speed Wind Dir Waves Ship Positions

Yuho Maru No.3

Last reported at 2017-Dec-18 11:00 UTC. Time now 2017-Dec-18 11:12 UTC.
Position N 34°13' E 134°41'.

Length 65 m; draft 3.9 m.

Type: Tanker. MMSI: 431000336.

Date/timePositionNaut miles runAvg speedWind from/ knotsBaromVisibWave heightAir tempDewpointWater temp
2017-Dec-18 11:00N 34°13' E 134°41'612.2
2017-Dec-18 10:30N 34°08' E 134°45'611.7
2017-Dec-18 09:59N 34°03' E 134°50'611.5
2017-Dec-18 09:28N 33°59' E 134°55'611.8
2017-Dec-18 09:00N 33°55' E 134°59'100 8.0
2017-Dec-17 20:33N 34°29' E 136°52'1 9.1
2017-Dec-17 20:29N 34°30' E 136°52'1 1.6
2017-Dec-17 20:00N 34°30' E 136°51'0 0.0
2017-Dec-17 19:29N 34°30' E 136°51'0 0.0
2017-Dec-17 19:00N 34°30' E 136°51'0 0.1
2017-Dec-17 18:30N 34°30' E 136°51'0 0.0
2017-Dec-17 17:59N 34°30' E 136°51'0 0.0
2017-Dec-17 17:30N 34°30' E 136°51'0 0.0
2017-Dec-17 17:00N 34°30' E 136°51'0 0.1
2017-Dec-17 16:30N 34°30' E 136°51'0 0.0
2017-Dec-17 15:59N 34°30' E 136°51'0 0.1
2017-Dec-17 15:30N 34°30' E 136°51'0 0.0
2017-Dec-17 15:00N 34°30' E 136°51'0 0.1
2017-Dec-17 14:27N 34°30' E 136°51'0 0.1
2017-Dec-17 14:00N 34°30' E 136°51'0 0.0
2017-Dec-17 13:30N 34°30' E 136°51'0 0.0
2017-Dec-17 13:00N 34°30' E 136°51'0 0.0
2017-Dec-17 12:30N 34°30' E 136°51'0 0.0
2017-Dec-17 12:00N 34°30' E 136°51'0 0.0
2017-Dec-17 11:30N 34°30' E 136°51'0 0.0
2017-Dec-17 10:37N 34°30' E 136°51'0 0.0
2017-Dec-17 10:27N 34°30' E 136°51'0 0.0
2017-Dec-17 09:59N 34°30' E 136°51'0 0.0
2017-Dec-17 09:30N 34°30' E 136°51'0 0.0
2017-Dec-17 09:00N 34°30' E 136°51'0 0.0
2017-Dec-17 08:22N 34°30' E 136°51'0 0.0
2017-Dec-17 08:00N 34°30' E 136°51'0 0.0
2017-Dec-17 07:29N 34°30' E 136°51'0 0.0
2017-Dec-17 07:00N 34°30' E 136°51'14 9.6
2017-Dec-17 05:34N 34°43' E 136°46'612.0
2017-Dec-17 05:05N 34°48' E 136°46'111.7
2017-Dec-17 05:00N 34°49' E 136°46'612.1
2017-Dec-17 04:30N 34°55' E 136°46'611.5
2017-Dec-17 04:00N 35°00' E 136°50'1 2.0
2017-Dec-17 03:30N 34°60' E 136°51'0 0.0
2017-Dec-17 03:00N 34°60' E 136°51'0 0.0
2017-Dec-17 02:30N 34°60' E 136°51'0 0.0
2017-Dec-17 02:00N 34°60' E 136°51'0 0.0
2017-Dec-17 01:30N 34°60' E 136°51'0 0.0
2017-Dec-17 01:00N 34°60' E 136°51'0 0.0
2017-Dec-17 00:30N 34°60' E 136°51'0 0.0
2017-Dec-17 00:00N 34°60' E 136°51'0 0.1
2017-Dec-16 23:31N 35°00' E 136°51'3 5.4
2017-Dec-16 23:00N 34°59' E 136°48'0 0.0
2017-Dec-16 22:30N 34°59' E 136°48'0 0.3
2017-Dec-16 22:01N 34°59' E 136°48'611.3
2017-Dec-16 21:30N 34°53' E 136°47'611.8
2017-Dec-16 21:00N 34°47' E 136°49'611.2
2017-Dec-16 20:30N 34°42' E 136°52'103 8.1
2017-Dec-16 07:47N 33°54' E 135°02'613.0
2017-Dec-16 07:17N 34°01' E 135°02'413.2
2017-Dec-16 06:59N 34°05' E 135°02'613.4
2017-Dec-16 06:30N 34°11' E 135°03'713.3
2017-Dec-16 06:00N 34°18' E 135°04'613.0
2017-Dec-16 05:30N 34°23' E 135°07'713.1
2017-Dec-16 05:00N 34°29' E 135°11'612.6
2017-Dec-16 04:30N 34°35' E 135°15'611.8
2017-Dec-16 04:00N 34°41' E 135°15'2 3.1
2017-Dec-16 03:30N 34°42' E 135°15'0 0.0
2017-Dec-16 03:00N 34°42' E 135°15'0 0.0
2017-Dec-16 02:30N 34°42' E 135°15'0 0.0
2017-Dec-16 02:00N 34°42' E 135°15'0 0.0
2017-Dec-16 01:30N 34°42' E 135°15'0 0.0
2017-Dec-16 01:00N 34°42' E 135°15'0 0.0
2017-Dec-16 00:30N 34°42' E 135°15'0 0.0
2017-Dec-16 00:00N 34°42' E 135°15'0 0.0
2017-Dec-15 23:30N 34°42' E 135°15'0 0.6
2017-Dec-15 23:00N 34°42' E 135°15'2 4.9
2017-Dec-15 22:30N 34°39' E 135°16'2 4.6
2017-Dec-15 22:00N 34°37' E 135°16'4 7.1
2017-Dec-15 21:30N 34°36' E 135°11'510.2
2017-Dec-15 21:00N 34°35' E 135°05'4 8.9
2017-Dec-15 20:30N 34°37' E 135°01'5 9.1
2017-Dec-15 20:00N 34°36' E 134°55'510.3
2017-Dec-15 19:30N 34°33' E 134°50'611.1
2017-Dec-15 19:00N 34°31' E 134°43'611.3
2017-Dec-15 18:30N 34°29' E 134°37'611.6
2017-Dec-15 18:00N 34°27' E 134°31'9211.7
2017-Dec-15 10:08N 34°05' E 132°42'212.6
2017-Dec-15 10:00N 34°04' E 132°41'712.9
2017-Dec-15 09:30N 33°59' E 132°35'712.2
2017-Dec-15 08:57N 33°55' E 132°29'1512.0
2017-Dec-15 07:41N 33°49' E 132°12'712.2
2017-Dec-15 07:06N 33°46' E 132°04'112.0
2017-Dec-15 07:00N 33°46' E 132°03'911.3
2017-Dec-15 06:12N 33°51' E 131°55'411.4
2017-Dec-15 05:50N 33°54' E 131°51'411.8
2017-Dec-15 05:30N 33°57' E 131°47'4 8.3
2017-Dec-15 04:59N 34°01' E 131°47'2 3.3
2017-Dec-15 04:28N 34°02' E 131°49'0 0.0
2017-Dec-15 04:00N 34°02' E 131°49'0 0.0
2017-Dec-15 02:25N 34°02' E 131°49'0 0.0
2017-Dec-15 01:00N 34°02' E 131°49'1 0.1
2017-Dec-14 18:29N 34°02' E 131°48'0 0.0
2017-Dec-14 18:00N 34°02' E 131°48'4 7.3
2017-Dec-14 17:30N 33°59' E 131°45'611.4
2017-Dec-14 17:00N 33°54' E 131°48'712.8
2017-Dec-14 16:28N 33°51' E 131°55'713.0
2017-Dec-14 15:54N 33°46' E 132°02'1213.2
2017-Dec-14 14:58N 33°50' E 132°16'813.2
2017-Dec-14 14:23N 33°52' E 132°25'713.9
2017-Dec-14 13:51N 33°57' E 132°32'413.0
2017-Dec-14 13:31N 33°60' E 132°35'713.7
2017-Dec-14 13:00N 34°05' E 132°41'10212.0
2017-Dec-14 04:33N 34°31' E 134°40'112.8
2017-Dec-14 04:30N 34°31' E 134°41'612.5
2017-Dec-14 03:59N 34°34' E 134°48'611.5
2017-Dec-14 03:30N 34°36' E 134°54'510.9
2017-Dec-14 03:00N 34°37' E 135°01'510.0
2017-Dec-14 02:30N 34°36' E 135°06'612.4
2017-Dec-14 02:00N 34°37' E 135°14'612.8
2017-Dec-14 01:30N 34°39' E 135°21'3 6.6
2017-Dec-14 01:00N 34°39' E 135°25'0 0.0
2017-Dec-14 00:30N 34°39' E 135°25'0 0.0
2017-Dec-14 00:00N 34°39' E 135°25'0 0.0
2017-Dec-13 23:30N 34°39' E 135°25'0 0.1
2017-Dec-13 23:01N 34°39' E 135°25'3 5.4
2017-Dec-13 22:30N 34°39' E 135°22'0 0.1
2017-Dec-13 22:00N 34°39' E 135°22'0 0.0
2017-Dec-13 21:30N 34°39' E 135°22'3 5.7
2017-Dec-13 21:00N 34°38' E 135°19'611.9
2017-Dec-13 20:30N 34°36' E 135°12'612.0
2017-Dec-13 20:00N 34°35' E 135°05'5 9.6
2017-Dec-13 19:30N 34°37' E 134°60'510.3
2017-Dec-13 19:00N 34°35' E 134°54'611.3
2017-Dec-13 18:30N 34°33' E 134°48'611.8
2017-Dec-13 18:00N 34°31' E 134°41'612.1
2017-Dec-13 17:30N 34°28' E 134°34'9511.8
2017-Dec-13 09:25N 34°05' E 132°43'512.8
2017-Dec-13 09:00N 34°02' E 132°38'712.8
2017-Dec-13 08:29N 33°57' E 132°32'3412.5
2017-Dec-13 05:46N 33°36' E 132°00'611.6
2017-Dec-13 05:15N 33°31' E 131°57'311.9
2017-Dec-13 05:00N 33°29' E 131°54'611.8
2017-Dec-13 04:29N 33°24' E 131°49'511.7
2017-Dec-13 04:01N 33°21' E 131°44'610.9
2017-Dec-13 03:30N 33°16' E 131°40'1 1.1
2017-Dec-13 02:58N 33°16' E 131°40'0 0.0
2017-Dec-13 02:31N 33°16' E 131°40'0 0.0
2017-Dec-13 01:57N 33°16' E 131°40'0 0.0
2017-Dec-13 01:30N 33°16' E 131°40'0 0.0
2017-Dec-13 01:00N 33°16' E 131°40'0 0.0
2017-Dec-13 00:30N 33°16' E 131°40'0 0.0
2017-Dec-13 00:01N 33°16' E 131°40'0 0.0
2017-Dec-12 23:28N 33°16' E 131°40'0 0.0
2017-Dec-12 22:59N 33°16' E 131°40'1 1.3
2017-Dec-12 22:27N 33°17' E 131°40'2 3.6
2017-Dec-12 22:00N 33°18' E 131°40'4 8.3
2017-Dec-12 21:30N 33°22' E 131°42'0 0.0
2017-Dec-12 21:01N 33°22' E 131°42'0 0.0
2017-Dec-12 20:30N 33°22' E 131°42'0 0.0
2017-Dec-12 20:00N 33°22' E 131°42'0 0.0
2017-Dec-12 19:30N 33°22' E 131°42'0 0.0
2017-Dec-12 19:01N 33°22' E 131°42'0 0.0
2017-Dec-12 18:31N 33°22' E 131°42'0 0.0
2017-Dec-12 18:01N 33°22' E 131°42'0 0.0
2017-Dec-12 17:31N 33°22' E 131°42'0 0.0
2017-Dec-12 17:00N 33°22' E 131°42'0 0.0
2017-Dec-12 16:31N 33°22' E 131°42'0 0.0
2017-Dec-12 16:01N 33°22' E 131°42'0 0.0
2017-Dec-12 15:30N 33°22' E 131°42'0 0.0
2017-Dec-12 15:01N 33°22' E 131°42'0 0.0
2017-Dec-12 14:30N 33°22' E 131°42'0 0.0
2017-Dec-12 14:01N 33°22' E 131°42'0 0.0
2017-Dec-12 13:30N 33°22' E 131°42'510.8
2017-Dec-12 13:01N 33°25' E 131°48'713.1
2017-Dec-12 12:31N 33°29' E 131°54'2113.2
2017-Dec-12 10:57N 33°42' E 132°13'713.2
2017-Dec-12 10:25N 33°47' E 132°19'1012.6
2017-Dec-12 09:39N 33°54' E 132°27'512.8
2017-Dec-12 09:16N 33°57' E 132°32'310.2
2017-Dec-12 08:56N 33°59' E 132°34'410.3
2017-Dec-12 08:31N 34°02' E 132°39'88 3.0
2017-Dec-11 03:05N 34°22' E 134°23'111.9
2017-Dec-11 03:00N 34°21' E 134°24'611.3
2017-Dec-11 02:30N 34°19' E 134°30'611.5
2017-Dec-11 02:01N 34°16' E 134°36'611.6
2017-Dec-11 01:30N 34°12' E 134°41'612.0
2017-Dec-11 01:00N 34°07' E 134°45'611.4
2017-Dec-11 00:30N 34°03' E 134°50'711.7
2017-Dec-10 23:56N 33°58' E 134°55'511.0
2017-Dec-10 23:30N 33°54' E 134°59'104 7.9
2017-Dec-10 10:21N 34°38' E 136°53'511.9
2017-Dec-10 09:56N 34°42' E 136°49'512.3
2017-Dec-10 09:30N 34°47' E 136°46'612.0
2017-Dec-10 09:00N 34°53' E 136°46'611.9
2017-Dec-10 08:30N 34°59' E 136°48'3 5.1
2017-Dec-10 08:00N 34°60' E 136°51'0 0.0
2017-Dec-10 07:30N 34°60' E 136°51'0 0.0
2017-Dec-10 06:58N 34°60' E 136°51'0 0.0
2017-Dec-10 06:28N 34°60' E 136°51'0 0.0
2017-Dec-10 05:58N 34°60' E 136°51'0 0.0
2017-Dec-10 05:28N 34°60' E 136°51'0 0.0
2017-Dec-10 04:58N 34°60' E 136°51'0 0.0
2017-Dec-10 04:28N 34°60' E 136°51'1 1.0
2017-Dec-10 03:58N 35°00' E 136°51'1 2.5
2017-Dec-10 03:31N 34°60' E 136°49'2 3.2
2017-Dec-10 02:59N 34°58' E 136°48'0 0.1
2017-Dec-10 02:29N 34°58' E 136°48'0 0.1
2017-Dec-10 01:58N 34°58' E 136°48'0 0.0
2017-Dec-10 01:29N 34°58' E 136°48'0 0.1
2017-Dec-10 00:59N 34°58' E 136°48'510.7
2017-Dec-10 00:31N 34°53' E 136°47'612.8
2017-Dec-10 00:00N 34°47' E 136°49'712.8
2017-Dec-09 23:28N 34°41' E 136°53'613.2
2017-Dec-09 22:59N 34°36' E 136°58'712.3
2017-Dec-09 22:25N 34°33' E 137°05'513.2
2017-Dec-09 22:00N 34°34' E 137°12'712.6
2017-Dec-09 21:29N 34°35' E 137°20'4611.8
2017-Dec-09 17:38N 34°34' E 138°15'911.4
2017-Dec-09 16:51N 34°35' E 138°26'411.0
2017-Dec-09 16:28N 34°35' E 138°31'510.9
2017-Dec-09 15:58N 34°35' E 138°37'510.1
2017-Dec-09 15:29N 34°35' E 138°43'510.4
2017-Dec-09 15:01N 34°35' E 138°49'5 9.2
2017-Dec-09 14:30N 34°35' E 138°55'610.6
2017-Dec-09 13:55N 34°40' E 139°00'812.9
2017-Dec-09 13:19N 34°46' E 139°06'512.4
2017-Dec-09 12:56N 34°50' E 139°09'613.1
2017-Dec-09 12:26N 34°55' E 139°14'512.7
2017-Dec-09 12:00N 34°57' E 139°20'712.0
2017-Dec-09 11:24N 35°01' E 139°28'511.0
2017-Dec-09 10:58N 35°04' E 139°33'612.3
2017-Dec-09 10:31N 35°06' E 139°39'612.6
2017-Dec-09 10:01N 35°11' E 139°44'611.3
2017-Dec-09 09:30N 35°16' E 139°45'612.4
2017-Dec-09 09:01N 35°22' E 139°42'611.7
2017-Dec-09 08:30N 35°27' E 139°46'612.4
2017-Dec-09 08:00N 35°30' E 139°53'510.4
2017-Dec-09 07:29N 35°27' E 139°58'0 0.1
2017-Dec-09 06:47N 35°27' E 139°58'0 0.0
2017-Dec-09 06:20N 35°27' E 139°58'0 0.0
2017-Dec-09 05:08N 35°27' E 139°58'0 0.0
2017-Dec-09 04:59N 35°27' E 139°58'0 0.0
2017-Dec-09 04:29N 35°27' E 139°58'0 0.6
2017-Dec-09 04:00N 35°27' E 139°58'4 8.0
2017-Dec-09 03:30N 35°30' E 140°02'0 0.4
2017-Dec-09 02:54N 35°30' E 140°02'0 0.0
2017-Dec-09 01:36N 35°30' E 140°02'0 0.0
2017-Dec-09 01:24N 35°30' E 140°02'0 0.0
2017-Dec-09 00:15N 35°30' E 140°02'0 0.0
2017-Dec-09 00:00N 35°30' E 140°02'0 0.0
2017-Dec-08 23:24N 35°30' E 140°02'2 3.7
2017-Dec-08 22:54N 35°31' E 140°00'411.0
2017-Dec-08 22:30N 35°34' E 140°03'3 5.6
2017-Dec-08 21:58N 35°36' E 140°06'0 0.0
2017-Dec-08 21:28N 35°36' E 140°06'0 0.0
2017-Dec-08 20:58N 35°36' E 140°06'0 0.0
2017-Dec-08 20:25N 35°36' E 140°06'0 0.0
2017-Dec-08 19:58N 35°36' E 140°06'0 0.0
2017-Dec-08 19:28N 35°36' E 140°06'0 0.0
2017-Dec-08 18:58N 35°36' E 140°06'0 0.0
2017-Dec-08 18:25N 35°36' E 140°06'0 0.0
2017-Dec-08 17:58N 35°36' E 140°06'0 0.0
2017-Dec-08 17:28N 35°36' E 140°06'0 0.0
2017-Dec-08 16:55N 35°36' E 140°06'0 0.0
2017-Dec-08 16:25N 35°36' E 140°06'0 0.0
2017-Dec-08 15:58N 35°36' E 140°06'0 0.0
2017-Dec-08 15:28N 35°36' E 140°06'0 0.0
2017-Dec-08 14:58N 35°36' E 140°06'0 0.0
2017-Dec-08 14:25N 35°36' E 140°06'0 0.0
2017-Dec-08 13:58N 35°36' E 140°06'0 0.0
2017-Dec-08 13:22N 35°36' E 140°06'0 0.0
2017-Dec-08 12:58N 35°36' E 140°06'0 0.0
2017-Dec-08 12:28N 35°36' E 140°06'0 0.0
2017-Dec-08 11:58N 35°36' E 140°06'0 0.0
2017-Dec-08 11:25N 35°36' E 140°06'  
Track history (hours):
 
Tides and Currents Weather Stations Pressure Air Temp Water Temp Dewpoint Dewpoint Depression Visibility Wind Speed Wind Dir Waves Ship Positions

Yuho Maru No.3

Last reported at 2017-Dec-18 11:00 UTC. Time now 2017-Dec-18 11:12 UTC.
Position N 34°13' E 134°41'.

Length 65 m; draft 3.9 m.

Type: Tanker. MMSI: 431000336.

Date/timePositionNaut miles runAvg speedWind from/ knotsBaromVisibWave heightAir tempDewpointWater temp
2017-Dec-18 11:00N 34°13' E 134°41'612.2
2017-Dec-18 10:30N 34°08' E 134°45'611.7
2017-Dec-18 09:59N 34°03' E 134°50'611.5
2017-Dec-18 09:28N 33°59' E 134°55'611.8
2017-Dec-18 09:00N 33°55' E 134°59'100 8.0
2017-Dec-17 20:33N 34°29' E 136°52'1 9.1
2017-Dec-17 20:29N 34°30' E 136°52'1 1.6
2017-Dec-17 20:00N 34°30' E 136°51'0 0.0
2017-Dec-17 19:29N 34°30' E 136°51'0 0.0
2017-Dec-17 19:00N 34°30' E 136°51'0 0.1
2017-Dec-17 18:30N 34°30' E 136°51'0 0.0
2017-Dec-17 17:59N 34°30' E 136°51'0 0.0
2017-Dec-17 17:30N 34°30' E 136°51'0 0.0
2017-Dec-17 17:00N 34°30' E 136°51'0 0.1
2017-Dec-17 16:30N 34°30' E 136°51'0 0.0
2017-Dec-17 15:59N 34°30' E 136°51'0 0.1
2017-Dec-17 15:30N 34°30' E 136°51'0 0.0
2017-Dec-17 15:00N 34°30' E 136°51'0 0.1
2017-Dec-17 14:27N 34°30' E 136°51'0 0.1
2017-Dec-17 14:00N 34°30' E 136°51'0 0.0
2017-Dec-17 13:30N 34°30' E 136°51'0 0.0
2017-Dec-17 13:00N 34°30' E 136°51'0 0.0
2017-Dec-17 12:30N 34°30' E 136°51'0 0.0
2017-Dec-17 12:00N 34°30' E 136°51'0 0.0
2017-Dec-17 11:30N 34°30' E 136°51'0 0.0
2017-Dec-17 10:37N 34°30' E 136°51'0 0.0
2017-Dec-17 10:27N 34°30' E 136°51'0 0.0
2017-Dec-17 09:59N 34°30' E 136°51'0 0.0
2017-Dec-17 09:30N 34°30' E 136°51'0 0.0
2017-Dec-17 09:00N 34°30' E 136°51'0 0.0
2017-Dec-17 08:22N 34°30' E 136°51'0 0.0
2017-Dec-17 08:00N 34°30' E 136°51'0 0.0
2017-Dec-17 07:29N 34°30' E 136°51'0 0.0
2017-Dec-17 07:00N 34°30' E 136°51'14 9.6
2017-Dec-17 05:34N 34°43' E 136°46'612.0
2017-Dec-17 05:05N 34°48' E 136°46'111.7
2017-Dec-17 05:00N 34°49' E 136°46'612.1
2017-Dec-17 04:30N 34°55' E 136°46'611.5
2017-Dec-17 04:00N 35°00' E 136°50'1 2.0
2017-Dec-17 03:30N 34°60' E 136°51'0 0.0
2017-Dec-17 03:00N 34°60' E 136°51'0 0.0
2017-Dec-17 02:30N 34°60' E 136°51'0 0.0
2017-Dec-17 02:00N 34°60' E 136°51'0 0.0
2017-Dec-17 01:30N 34°60' E 136°51'0 0.0
2017-Dec-17 01:00N 34°60' E 136°51'0 0.0
2017-Dec-17 00:30N 34°60' E 136°51'0 0.0
2017-Dec-17 00:00N 34°60' E 136°51'0 0.1
2017-Dec-16 23:31N 35°00' E 136°51'3 5.4
2017-Dec-16 23:00N 34°59' E 136°48'0 0.0
2017-Dec-16 22:30N 34°59' E 136°48'0 0.3
2017-Dec-16 22:01N 34°59' E 136°48'611.3
2017-Dec-16 21:30N 34°53' E 136°47'611.8
2017-Dec-16 21:00N 34°47' E 136°49'611.2
2017-Dec-16 20:30N 34°42' E 136°52'103 8.1
2017-Dec-16 07:47N 33°54' E 135°02'613.0
2017-Dec-16 07:17N 34°01' E 135°02'413.2
2017-Dec-16 06:59N 34°05' E 135°02'613.4
2017-Dec-16 06:30N 34°11' E 135°03'713.3
2017-Dec-16 06:00N 34°18' E 135°04'613.0
2017-Dec-16 05:30N 34°23' E 135°07'713.1
2017-Dec-16 05:00N 34°29' E 135°11'612.6
2017-Dec-16 04:30N 34°35' E 135°15'611.8
2017-Dec-16 04:00N 34°41' E 135°15'2 3.1
2017-Dec-16 03:30N 34°42' E 135°15'0 0.0
2017-Dec-16 03:00N 34°42' E 135°15'0 0.0
2017-Dec-16 02:30N 34°42' E 135°15'0 0.0
2017-Dec-16 02:00N 34°42' E 135°15'0 0.0
2017-Dec-16 01:30N 34°42' E 135°15'0 0.0
2017-Dec-16 01:00N 34°42' E 135°15'0 0.0
2017-Dec-16 00:30N 34°42' E 135°15'0 0.0
2017-Dec-16 00:00N 34°42' E 135°15'0 0.0
2017-Dec-15 23:30N 34°42' E 135°15'0 0.6
2017-Dec-15 23:00N 34°42' E 135°15'2 4.9
2017-Dec-15 22:30N 34°39' E 135°16'2 4.6
2017-Dec-15 22:00N 34°37' E 135°16'4 7.1
2017-Dec-15 21:30N 34°36' E 135°11'510.2
2017-Dec-15 21:00N 34°35' E 135°05'4 8.9
2017-Dec-15 20:30N 34°37' E 135°01'5 9.1
2017-Dec-15 20:00N 34°36' E 134°55'510.3
2017-Dec-15 19:30N 34°33' E 134°50'611.1
2017-Dec-15 19:00N 34°31' E 134°43'611.3
2017-Dec-15 18:30N 34°29' E 134°37'611.6
2017-Dec-15 18:00N 34°27' E 134°31'9211.7
2017-Dec-15 10:08N 34°05' E 132°42'212.6
2017-Dec-15 10:00N 34°04' E 132°41'712.9
2017-Dec-15 09:30N 33°59' E 132°35'712.2
2017-Dec-15 08:57N 33°55' E 132°29'1512.0
2017-Dec-15 07:41N 33°49' E 132°12'712.2
2017-Dec-15 07:06N 33°46' E 132°04'112.0
2017-Dec-15 07:00N 33°46' E 132°03'911.3
2017-Dec-15 06:12N 33°51' E 131°55'411.4
2017-Dec-15 05:50N 33°54' E 131°51'411.8
2017-Dec-15 05:30N 33°57' E 131°47'4 8.3
2017-Dec-15 04:59N 34°01' E 131°47'2 3.3
2017-Dec-15 04:28N 34°02' E 131°49'0 0.0
2017-Dec-15 04:00N 34°02' E 131°49'0 0.0
2017-Dec-15 02:25N 34°02' E 131°49'0 0.0
2017-Dec-15 01:00N 34°02' E 131°49'1 0.1
2017-Dec-14 18:29N 34°02' E 131°48'0 0.0
2017-Dec-14 18:00N 34°02' E 131°48'4 7.3
2017-Dec-14 17:30N 33°59' E 131°45'611.4
2017-Dec-14 17:00N 33°54' E 131°48'712.8
2017-Dec-14 16:28N 33°51' E 131°55'713.0
2017-Dec-14 15:54N 33°46' E 132°02'1213.2
2017-Dec-14 14:58N 33°50' E 132°16'813.2
2017-Dec-14 14:23N 33°52' E 132°25'713.9
2017-Dec-14 13:51N 33°57' E 132°32'413.0
2017-Dec-14 13:31N 33°60' E 132°35'713.7
2017-Dec-14 13:00N 34°05' E 132°41'10212.0
2017-Dec-14 04:33N 34°31' E 134°40'112.8
2017-Dec-14 04:30N 34°31' E 134°41'612.5
2017-Dec-14 03:59N 34°34' E 134°48'611.5
2017-Dec-14 03:30N 34°36' E 134°54'510.9
2017-Dec-14 03:00N 34°37' E 135°01'510.0
2017-Dec-14 02:30N 34°36' E 135°06'612.4
2017-Dec-14 02:00N 34°37' E 135°14'612.8
2017-Dec-14 01:30N 34°39' E 135°21'3 6.6
2017-Dec-14 01:00N 34°39' E 135°25'0 0.0
2017-Dec-14 00:30N 34°39' E 135°25'0 0.0
2017-Dec-14 00:00N 34°39' E 135°25'0 0.0
2017-Dec-13 23:30N 34°39' E 135°25'0 0.1
2017-Dec-13 23:01N 34°39' E 135°25'3 5.4
2017-Dec-13 22:30N 34°39' E 135°22'0 0.1
2017-Dec-13 22:00N 34°39' E 135°22'0 0.0
2017-Dec-13 21:30N 34°39' E 135°22'3 5.7
2017-Dec-13 21:00N 34°38' E 135°19'611.9
2017-Dec-13 20:30N 34°36' E 135°12'612.0
2017-Dec-13 20:00N 34°35' E 135°05'5 9.6
2017-Dec-13 19:30N 34°37' E 134°60'510.3
2017-Dec-13 19:00N 34°35' E 134°54'611.3
2017-Dec-13 18:30N 34°33' E 134°48'611.8
2017-Dec-13 18:00N 34°31' E 134°41'612.1
2017-Dec-13 17:30N 34°28' E 134°34'9511.8
2017-Dec-13 09:25N 34°05' E 132°43'512.8
2017-Dec-13 09:00N 34°02' E 132°38'712.8
2017-Dec-13 08:29N 33°57' E 132°32'3412.5
2017-Dec-13 05:46N 33°36' E 132°00'611.6
2017-Dec-13 05:15N 33°31' E 131°57'311.9
2017-Dec-13 05:00N 33°29' E 131°54'611.8
2017-Dec-13 04:29N 33°24' E 131°49'511.7
2017-Dec-13 04:01N 33°21' E 131°44'610.9
2017-Dec-13 03:30N 33°16' E 131°40'1 1.1
2017-Dec-13 02:58N 33°16' E 131°40'0 0.0
2017-Dec-13 02:31N 33°16' E 131°40'0 0.0
2017-Dec-13 01:57N 33°16' E 131°40'0 0.0
2017-Dec-13 01:30N 33°16' E 131°40'0 0.0
2017-Dec-13 01:00N 33°16' E 131°40'0 0.0
2017-Dec-13 00:30N 33°16' E 131°40'0 0.0
2017-Dec-13 00:01N 33°16' E 131°40'0 0.0
2017-Dec-12 23:28N 33°16' E 131°40'0 0.0
2017-Dec-12 22:59N 33°16' E 131°40'1 1.3
2017-Dec-12 22:27N 33°17' E 131°40'2 3.6
2017-Dec-12 22:00N 33°18' E 131°40'4 8.3
2017-Dec-12 21:30N 33°22' E 131°42'0 0.0
2017-Dec-12 21:01N 33°22' E 131°42'0 0.0
2017-Dec-12 20:30N 33°22' E 131°42'0 0.0
2017-Dec-12 20:00N 33°22' E 131°42'0 0.0
2017-Dec-12 19:30N 33°22' E 131°42'0 0.0
2017-Dec-12 19:01N 33°22' E 131°42'0 0.0
2017-Dec-12 18:31N 33°22' E 131°42'0 0.0
2017-Dec-12 18:01N 33°22' E 131°42'0 0.0
2017-Dec-12 17:31N 33°22' E 131°42'0 0.0
2017-Dec-12 17:00N 33°22' E 131°42'0 0.0
2017-Dec-12 16:31N 33°22' E 131°42'0 0.0
2017-Dec-12 16:01N 33°22' E 131°42'0 0.0
2017-Dec-12 15:30N 33°22' E 131°42'0 0.0
2017-Dec-12 15:01N 33°22' E 131°42'0 0.0
2017-Dec-12 14:30N 33°22' E 131°42'0 0.0
2017-Dec-12 14:01N 33°22' E 131°42'0 0.0
2017-Dec-12 13:30N 33°22' E 131°42'510.8
2017-Dec-12 13:01N 33°25' E 131°48'713.1
2017-Dec-12 12:31N 33°29' E 131°54'2113.2
2017-Dec-12 10:57N 33°42' E 132°13'713.2
2017-Dec-12 10:25N 33°47' E 132°19'1012.6
2017-Dec-12 09:39N 33°54' E 132°27'512.8
2017-Dec-12 09:16N 33°57' E 132°32'310.2
2017-Dec-12 08:56N 33°59' E 132°34'410.3
2017-Dec-12 08:31N 34°02' E 132°39'88 3.0
2017-Dec-11 03:05N 34°22' E 134°23'111.9
2017-Dec-11 03:00N 34°21' E 134°24'611.3
2017-Dec-11 02:30N 34°19' E 134°30'611.5
2017-Dec-11 02:01N 34°16' E 134°36'611.6
2017-Dec-11 01:30N 34°12' E 134°41'612.0
2017-Dec-11 01:00N 34°07' E 134°45'611.4
2017-Dec-11 00:30N 34°03' E 134°50'711.7
2017-Dec-10 23:56N 33°58' E 134°55'511.0
2017-Dec-10 23:30N 33°54' E 134°59'104 7.9
2017-Dec-10 10:21N 34°38' E 136°53'511.9
2017-Dec-10 09:56N 34°42' E 136°49'512.3
2017-Dec-10 09:30N 34°47' E 136°46'612.0
2017-Dec-10 09:00N 34°53' E 136°46'611.9
2017-Dec-10 08:30N 34°59' E 136°48'3 5.1
2017-Dec-10 08:00N 34°60' E 136°51'0 0.0
2017-Dec-10 07:30N 34°60' E 136°51'0 0.0
2017-Dec-10 06:58N 34°60' E 136°51'0 0.0
2017-Dec-10 06:28N 34°60' E 136°51'0 0.0
2017-Dec-10 05:58N 34°60' E 136°51'0 0.0
2017-Dec-10 05:28N 34°60' E 136°51'0 0.0
2017-Dec-10 04:58N 34°60' E 136°51'0 0.0
2017-Dec-10 04:28N 34°60' E 136°51'1 1.0
2017-Dec-10 03:58N 35°00' E 136°51'1 2.5
2017-Dec-10 03:31N 34°60' E 136°49'2 3.2
2017-Dec-10 02:59N 34°58' E 136°48'0 0.1
2017-Dec-10 02:29N 34°58' E 136°48'0 0.1
2017-Dec-10 01:58N 34°58' E 136°48'0 0.0
2017-Dec-10 01:29N 34°58' E 136°48'0 0.1
2017-Dec-10 00:59N 34°58' E 136°48'510.7
2017-Dec-10 00:31N 34°53' E 136°47'612.8
2017-Dec-10 00:00N 34°47' E 136°49'712.8
2017-Dec-09 23:28N 34°41' E 136°53'613.2
2017-Dec-09 22:59N 34°36' E 136°58'712.3
2017-Dec-09 22:25N 34°33' E 137°05'513.2
2017-Dec-09 22:00N 34°34' E 137°12'712.6
2017-Dec-09 21:29N 34°35' E 137°20'4611.8
2017-Dec-09 17:38N 34°34' E 138°15'911.4
2017-Dec-09 16:51N 34°35' E 138°26'411.0
2017-Dec-09 16:28N 34°35' E 138°31'510.9
2017-Dec-09 15:58N 34°35' E 138°37'510.1
2017-Dec-09 15:29N 34°35' E 138°43'510.4
2017-Dec-09 15:01N 34°35' E 138°49'5 9.2
2017-Dec-09 14:30N 34°35' E 138°55'610.6
2017-Dec-09 13:55N 34°40' E 139°00'812.9
2017-Dec-09 13:19N 34°46' E 139°06'512.4
2017-Dec-09 12:56N 34°50' E 139°09'613.1
2017-Dec-09 12:26N 34°55' E 139°14'512.7
2017-Dec-09 12:00N 34°57' E 139°20'712.0
2017-Dec-09 11:24N 35°01' E 139°28'511.0
2017-Dec-09 10:58N 35°04' E 139°33'612.3
2017-Dec-09 10:31N 35°06' E 139°39'612.6
2017-Dec-09 10:01N 35°11' E 139°44'611.3
2017-Dec-09 09:30N 35°16' E 139°45'612.4
2017-Dec-09 09:01N 35°22' E 139°42'611.7
2017-Dec-09 08:30N 35°27' E 139°46'612.4
2017-Dec-09 08:00N 35°30' E 139°53'510.4
2017-Dec-09 07:29N 35°27' E 139°58'0 0.1
2017-Dec-09 06:47N 35°27' E 139°58'0 0.0
2017-Dec-09 06:20N 35°27' E 139°58'0 0.0
2017-Dec-09 05:08N 35°27' E 139°58'0 0.0
2017-Dec-09 04:59N 35°27' E 139°58'0 0.0
2017-Dec-09 04:29N 35°27' E 139°58'0 0.6
2017-Dec-09 04:00N 35°27' E 139°58'4 8.0
2017-Dec-09 03:30N 35°30' E 140°02'0 0.4
2017-Dec-09 02:54N 35°30' E 140°02'0 0.0
2017-Dec-09 01:36N 35°30' E 140°02'0 0.0
2017-Dec-09 01:24N 35°30' E 140°02'0 0.0
2017-Dec-09 00:15N 35°30' E 140°02'0 0.0
2017-Dec-09 00:00N 35°30' E 140°02'0 0.0
2017-Dec-08 23:24N 35°30' E 140°02'2 3.7
2017-Dec-08 22:54N 35°31' E 140°00'411.0
2017-Dec-08 22:30N 35°34' E 140°03'3 5.6
2017-Dec-08 21:58N 35°36' E 140°06'0 0.0
2017-Dec-08 21:28N 35°36' E 140°06'0 0.0
2017-Dec-08 20:58N 35°36' E 140°06'0 0.0
2017-Dec-08 20:25N 35°36' E 140°06'0 0.0
2017-Dec-08 19:58N 35°36' E 140°06'0 0.0
2017-Dec-08 19:28N 35°36' E 140°06'0 0.0
2017-Dec-08 18:58N 35°36' E 140°06'0 0.0
2017-Dec-08 18:25N 35°36' E 140°06'0 0.0
2017-Dec-08 17:58N 35°36' E 140°06'0 0.0
2017-Dec-08 17:28N 35°36' E 140°06'0 0.0
2017-Dec-08 16:55N 35°36' E 140°06'0 0.0
2017-Dec-08 16:25N 35°36' E 140°06'0 0.0
2017-Dec-08 15:58N 35°36' E 140°06'0 0.0
2017-Dec-08 15:28N 35°36' E 140°06'0 0.0
2017-Dec-08 14:58N 35°36' E 140°06'0 0.0
2017-Dec-08 14:25N 35°36' E 140°06'0 0.0
2017-Dec-08 13:58N 35°36' E 140°06'0 0.0
2017-Dec-08 13:22N 35°36' E 140°06'0 0.0
2017-Dec-08 12:58N 35°36' E 140°06'0 0.0
2017-Dec-08 12:28N 35°36' E 140°06'0 0.0
2017-Dec-08 11:58N 35°36' E 140°06'0 0.0
2017-Dec-08 11:25N 35°36' E 140°06'  

Dump ship's entire track history